Seamark 3 — PC8995 — position and weather

sailwx.info

Track history (hours):
 
Tides and Currents Weather Stations Pressure Air Temp Water Temp Dewpoint Dewpoint Depression Visibility Wind Speed Wind Dir Waves Ship Positions

Seamark 3

Last reported at 2018-Feb-22 01:00 UTC. Time now 2018-Feb-22 01:17 UTC.
Position N 37°56' E 023°39'.

Length 15 m; draft 3.2 m.

Type: Pleasure craft. MMSI: 245999250.

Date/timePositionNaut miles runAvg speedWind from/ knotsBaromVisibWave heightAir tempDewpointWater temp
2018-Feb-22 01:00N 37°56' E 023°39'0 0.0
2018-Feb-22 00:30N 37°56' E 023°39'0 0.0
2018-Feb-22 00:00N 37°56' E 023°39'0 0.0
2018-Feb-21 23:30N 37°56' E 023°39'0 0.0
2018-Feb-21 23:00N 37°56' E 023°39'0 0.0
2018-Feb-21 22:27N 37°56' E 023°39'0 0.0
2018-Feb-21 22:00N 37°56' E 023°39'0 0.0
2018-Feb-21 21:30N 37°56' E 023°39'0 0.0
2018-Feb-21 21:00N 37°56' E 023°39'0 0.0
2018-Feb-21 20:30N 37°56' E 023°39'0 0.0
2018-Feb-21 19:57N 37°56' E 023°39'0 0.0
2018-Feb-21 19:30N 37°56' E 023°39'0 0.0
2018-Feb-21 19:00N 37°56' E 023°39'0 0.0
2018-Feb-21 18:30N 37°56' E 023°39'0 0.0
2018-Feb-21 18:00N 37°56' E 023°39'0 0.0
2018-Feb-21 17:30N 37°56' E 023°39'0 0.0
2018-Feb-21 17:00N 37°56' E 023°39'0 0.0
2018-Feb-21 16:30N 37°56' E 023°39'0 0.0
2018-Feb-21 16:00N 37°56' E 023°39'0 0.0
2018-Feb-21 15:30N 37°56' E 023°39'0 0.0
2018-Feb-21 14:57N 37°56' E 023°39'0 0.0
2018-Feb-21 14:27N 37°56' E 023°39'0 0.0
2018-Feb-21 13:57N 37°56' E 023°39'0 0.0
2018-Feb-21 13:30N 37°56' E 023°39'0 0.0
2018-Feb-21 13:00N 37°56' E 023°39'0 0.7
2018-Feb-21 12:31N 37°56' E 023°39'510.5
2018-Feb-21 12:01N 37°51' E 023°43'3 6.0
2018-Feb-21 11:30N 37°53' E 023°40'713.3
2018-Feb-21 11:00N 37°47' E 023°44'713.8
2018-Feb-21 10:30N 37°53' E 023°39'3 7.0
2018-Feb-21 10:01N 37°54' E 023°35'815.7
2018-Feb-21 09:31N 37°49' E 023°42'5 9.7
2018-Feb-21 09:00N 37°53' E 023°39'510.1
2018-Feb-21 08:31N 37°57' E 023°35'1 1.5
2018-Feb-21 08:00N 37°57' E 023°34'0 0.6
2018-Feb-21 07:31N 37°57' E 023°34'0 0.3
2018-Feb-21 07:00N 37°57' E 023°34'0 0.6
2018-Feb-21 06:29N 37°58' E 023°34'0 0.0
2018-Feb-21 05:59N 37°58' E 023°34'0 0.0
2018-Feb-21 05:29N 37°58' E 023°34'0 0.0
2018-Feb-21 04:59N 37°58' E 023°34'0 0.0
2018-Feb-21 04:29N 37°58' E 023°34'0 0.0
2018-Feb-21 03:59N 37°58' E 023°34'0 0.0
2018-Feb-21 03:29N 37°58' E 023°34'0 0.0
2018-Feb-21 02:59N 37°58' E 023°34'0 0.0
2018-Feb-21 02:29N 37°58' E 023°34'0 0.0
2018-Feb-21 01:59N 37°58' E 023°34'0 0.0
2018-Feb-21 01:29N 37°58' E 023°34'0 0.0
2018-Feb-21 00:56N 37°58' E 023°34'0 0.0
2018-Feb-21 00:29N 37°58' E 023°34'0 0.0
2018-Feb-20 23:59N 37°58' E 023°34'0 0.0
2018-Feb-20 23:29N 37°58' E 023°34'0 0.0
2018-Feb-20 22:59N 37°58' E 023°34'0 0.0
2018-Feb-20 22:29N 37°58' E 023°34'0 0.0
2018-Feb-20 21:59N 37°58' E 023°34'0 0.0
2018-Feb-20 21:29N 37°58' E 023°34'0 0.0
2018-Feb-20 20:59N 37°58' E 023°34'0 0.0
2018-Feb-20 20:29N 37°58' E 023°34'0 0.0
2018-Feb-20 19:59N 37°58' E 023°34'0 0.0
2018-Feb-20 19:29N 37°58' E 023°34'0 0.0
2018-Feb-20 18:59N 37°58' E 023°34'0 0.0
2018-Feb-20 18:29N 37°58' E 023°34'0 0.0
2018-Feb-20 17:59N 37°58' E 023°34'0 0.0
2018-Feb-20 17:29N 37°58' E 023°34'0 0.0
2018-Feb-20 16:59N 37°58' E 023°34'0 0.0
2018-Feb-20 16:29N 37°58' E 023°34'0 0.0
2018-Feb-20 15:59N 37°58' E 023°34'0 0.0
2018-Feb-20 15:29N 37°58' E 023°34'0 0.0
2018-Feb-20 14:59N 37°58' E 023°34'0 0.0
2018-Feb-20 14:29N 37°58' E 023°34'0 0.0
2018-Feb-20 13:59N 37°58' E 023°34'0 0.0
2018-Feb-20 13:29N 37°58' E 023°34'0 0.0
2018-Feb-20 12:59N 37°58' E 023°34'0 0.0
2018-Feb-20 12:29N 37°58' E 023°34'0 0.0
2018-Feb-20 11:59N 37°58' E 023°34'0 0.0
2018-Feb-20 11:23N 37°58' E 023°34'0 0.0
2018-Feb-20 10:59N 37°58' E 023°34'0 0.0
2018-Feb-20 10:29N 37°58' E 023°34'0 0.0
2018-Feb-20 09:59N 37°58' E 023°34'0 0.0
2018-Feb-20 09:29N 37°58' E 023°34'0 0.0
2018-Feb-20 08:59N 37°58' E 023°34'0 0.0
2018-Feb-20 08:23N 37°58' E 023°34'0 0.0
2018-Feb-20 07:59N 37°58' E 023°34'0 0.0
2018-Feb-20 07:29N 37°58' E 023°34'0 0.0
2018-Feb-20 06:59N 37°58' E 023°34'0 0.0
2018-Feb-20 06:26N 37°58' E 023°34'0 0.0
2018-Feb-20 05:59N 37°58' E 023°34'0 0.0
2018-Feb-20 05:29N 37°58' E 023°34'0 0.0
2018-Feb-20 04:59N 37°58' E 023°34'0 0.0
2018-Feb-20 04:29N 37°58' E 023°34'0 0.0
2018-Feb-20 03:59N 37°58' E 023°34'0 0.0
2018-Feb-20 03:29N 37°58' E 023°34'0 0.0
2018-Feb-20 02:59N 37°58' E 023°34'0 0.0
2018-Feb-20 02:29N 37°58' E 023°34'0 0.0
2018-Feb-20 01:59N 37°58' E 023°34'0 0.0
2018-Feb-20 01:29N 37°58' E 023°34'0 0.0
2018-Feb-20 00:53N 37°58' E 023°34'0 0.0
2018-Feb-20 00:29N 37°58' E 023°34'0 0.0
2018-Feb-19 23:59N 37°58' E 023°34'0 0.0
2018-Feb-19 23:29N 37°58' E 023°34'0 0.0
2018-Feb-19 22:59N 37°58' E 023°34'0 0.0
2018-Feb-19 22:29N 37°58' E 023°34'0 0.0
2018-Feb-19 21:59N 37°58' E 023°34'0 0.0
2018-Feb-19 21:29N 37°58' E 023°34'0 0.0
2018-Feb-19 20:59N 37°58' E 023°34'0 0.0
2018-Feb-19 20:29N 37°58' E 023°34'0 0.0
2018-Feb-19 19:53N 37°58' E 023°34'0 0.0
2018-Feb-19 19:29N 37°58' E 023°34'0 0.0
2018-Feb-19 18:59N 37°58' E 023°34'0 0.0
2018-Feb-19 18:29N 37°58' E 023°34'0 0.0
2018-Feb-19 17:56N 37°58' E 023°34'0 0.0
2018-Feb-19 17:29N 37°58' E 023°34'0 0.0
2018-Feb-19 16:53N 37°58' E 023°34'0 0.0
2018-Feb-19 16:29N 37°58' E 023°34'0 0.0
2018-Feb-19 15:56N 37°58' E 023°34'0 0.0
2018-Feb-19 15:29N 37°58' E 023°34'0 0.0
2018-Feb-19 14:59N 37°58' E 023°34'0 0.0
2018-Feb-19 14:29N 37°58' E 023°34'0 0.0
2018-Feb-19 13:56N 37°58' E 023°34'0 0.0
2018-Feb-19 13:29N 37°58' E 023°34'0 0.0
2018-Feb-19 12:59N 37°58' E 023°34'0 0.0
2018-Feb-19 12:29N 37°58' E 023°34'0 0.0
2018-Feb-19 11:59N 37°58' E 023°34'0 0.0
2018-Feb-19 11:29N 37°58' E 023°34'0 0.0
2018-Feb-19 10:59N 37°58' E 023°34'0 0.0
2018-Feb-19 10:29N 37°58' E 023°34'0 0.0
2018-Feb-19 09:59N 37°58' E 023°34'0 0.0
2018-Feb-19 09:29N 37°58' E 023°34'0 0.0
2018-Feb-19 08:59N 37°58' E 023°34'0 0.0
2018-Feb-19 08:23N 37°58' E 023°34'0 0.0
2018-Feb-19 07:59N 37°58' E 023°34'0 0.0
2018-Feb-19 07:26N 37°58' E 023°34'0 0.0
2018-Feb-19 06:59N 37°58' E 023°34'0 0.0
2018-Feb-19 06:26N 37°58' E 023°34'0 0.0
2018-Feb-19 05:59N 37°58' E 023°34'0 0.0
2018-Feb-19 05:29N 37°58' E 023°34'0 0.0
2018-Feb-19 04:59N 37°58' E 023°34'0 0.0
2018-Feb-19 04:29N 37°58' E 023°34'0 0.0
2018-Feb-19 03:59N 37°58' E 023°34'0 0.0
2018-Feb-19 03:29N 37°58' E 023°34'0 0.0
2018-Feb-19 02:59N 37°58' E 023°34'0 0.0
2018-Feb-19 02:29N 37°58' E 023°34'0 0.0
2018-Feb-19 01:59N 37°58' E 023°34'0 0.0
2018-Feb-19 01:29N 37°58' E 023°34'0 0.0
2018-Feb-19 00:59N 37°58' E 023°34'0 0.0
2018-Feb-19 00:29N 37°58' E 023°34'0 0.0
2018-Feb-18 23:59N 37°58' E 023°34'0 0.0
2018-Feb-18 23:29N 37°58' E 023°34'0 0.0
2018-Feb-18 22:59N 37°58' E 023°34'0 0.0
2018-Feb-18 22:29N 37°58' E 023°34'0 0.0
2018-Feb-18 21:59N 37°58' E 023°34'0 0.0
2018-Feb-18 21:29N 37°58' E 023°34'0 0.0
2018-Feb-18 20:59N 37°58' E 023°34'0 0.0
2018-Feb-18 20:29N 37°58' E 023°34'0 0.0
2018-Feb-18 19:59N 37°58' E 023°34'0 0.0
2018-Feb-18 19:29N 37°58' E 023°34'0 0.0
2018-Feb-18 18:59N 37°58' E 023°34'0 0.0
2018-Feb-18 18:29N 37°58' E 023°34'0 0.0
2018-Feb-18 17:59N 37°58' E 023°34'0 0.0
2018-Feb-18 17:29N 37°58' E 023°34'0 0.0
2018-Feb-18 16:59N 37°58' E 023°34'0 0.0
2018-Feb-18 16:29N 37°58' E 023°34'0 0.0
2018-Feb-18 15:59N 37°58' E 023°34'0 0.0
2018-Feb-18 15:29N 37°58' E 023°34'0 0.0
2018-Feb-18 14:59N 37°58' E 023°34'0 0.0
2018-Feb-18 14:29N 37°58' E 023°34'0 0.0
2018-Feb-18 13:59N 37°58' E 023°34'0 0.0
2018-Feb-18 13:29N 37°58' E 023°34'0 0.0
2018-Feb-18 12:59N 37°58' E 023°34'0 0.0
2018-Feb-18 12:29N 37°58' E 023°34'0 0.0
2018-Feb-18 11:59N 37°58' E 023°34'0 0.0
2018-Feb-18 11:29N 37°58' E 023°34'0 0.0
2018-Feb-18 10:59N 37°58' E 023°34'0 0.0
2018-Feb-18 10:29N 37°58' E 023°34'0 0.0
2018-Feb-18 09:59N 37°58' E 023°34'0 0.0
2018-Feb-18 09:29N 37°58' E 023°34'0 0.0
2018-Feb-18 08:59N 37°58' E 023°34'0 0.0
2018-Feb-18 08:29N 37°58' E 023°34'0 0.0
2018-Feb-18 07:59N 37°58' E 023°34'0 0.0
2018-Feb-18 07:26N 37°58' E 023°34'0 0.0
2018-Feb-18 06:59N 37°58' E 023°34'0 0.0
2018-Feb-18 06:29N 37°58' E 023°34'0 0.0
2018-Feb-18 05:59N 37°58' E 023°34'0 0.0
2018-Feb-18 05:29N 37°58' E 023°34'0 0.0
2018-Feb-18 04:59N 37°58' E 023°34'0 0.0
2018-Feb-18 04:29N 37°58' E 023°34'0 0.0
2018-Feb-18 03:59N 37°58' E 023°34'0 0.0
2018-Feb-18 03:29N 37°58' E 023°34'0 0.0
2018-Feb-18 02:59N 37°58' E 023°34'0 0.0
2018-Feb-18 02:29N 37°58' E 023°34'0 0.0
2018-Feb-18 01:59N 37°58' E 023°34'0 0.0
2018-Feb-18 01:29N 37°58' E 023°34'0 0.0
2018-Feb-18 00:59N 37°58' E 023°34'0 0.0
2018-Feb-18 00:29N 37°58' E 023°34'0 0.0
2018-Feb-17 23:59N 37°58' E 023°34'0 0.0
2018-Feb-17 23:29N 37°58' E 023°34'0 0.0
2018-Feb-17 22:59N 37°58' E 023°34'0 0.0
2018-Feb-17 22:29N 37°58' E 023°34'0 0.0
2018-Feb-17 21:59N 37°58' E 023°34'0 0.0
2018-Feb-17 21:29N 37°58' E 023°34'0 0.0
2018-Feb-17 20:59N 37°58' E 023°34'0 0.0
2018-Feb-17 20:26N 37°58' E 023°34'0 0.0
2018-Feb-17 19:59N 37°58' E 023°34'0 0.0
2018-Feb-17 19:29N 37°58' E 023°34'0 0.0
2018-Feb-17 18:59N 37°58' E 023°34'0 0.0
2018-Feb-17 18:26N 37°58' E 023°34'0 0.0
2018-Feb-17 17:59N 37°58' E 023°34'0 0.0
2018-Feb-17 17:29N 37°58' E 023°34'0 0.0
2018-Feb-17 16:59N 37°58' E 023°34'0 0.0
2018-Feb-17 16:29N 37°58' E 023°34'0 0.0
2018-Feb-17 15:59N 37°58' E 023°34'0 0.0
2018-Feb-17 15:29N 37°58' E 023°34'0 0.0
2018-Feb-17 14:59N 37°58' E 023°34'0 0.0
2018-Feb-17 14:29N 37°58' E 023°34'0 0.0
2018-Feb-17 13:59N 37°58' E 023°34'0 0.0
2018-Feb-17 13:29N 37°58' E 023°34'0 0.0
2018-Feb-17 12:59N 37°58' E 023°34'0 0.0
2018-Feb-17 12:29N 37°58' E 023°34'0 0.0
2018-Feb-17 11:59N 37°58' E 023°34'0 0.0
2018-Feb-17 11:29N 37°58' E 023°34'0 0.0
2018-Feb-17 10:59N 37°58' E 023°34'0 0.0
2018-Feb-17 10:29N 37°58' E 023°34'0 0.0
2018-Feb-17 09:58N 37°58' E 023°34'0 0.0
2018-Feb-17 09:29N 37°58' E 023°34'0 0.1
2018-Feb-17 08:59N 37°58' E 023°34'0 0.0
2018-Feb-17 08:29N 37°58' E 023°34'0 0.0
2018-Feb-17 07:59N 37°58' E 023°34'0 0.0
2018-Feb-17 07:29N 37°58' E 023°34'0 0.0
2018-Feb-17 06:59N 37°58' E 023°34'0 0.0
2018-Feb-17 06:29N 37°58' E 023°34'0 0.0
2018-Feb-17 05:59N 37°58' E 023°34'0 0.0
2018-Feb-17 05:26N 37°58' E 023°34'0 0.0
2018-Feb-17 04:59N 37°58' E 023°34'0 0.0
2018-Feb-17 04:29N 37°58' E 023°34'0 0.0
2018-Feb-17 03:59N 37°58' E 023°34'0 0.0
2018-Feb-17 03:29N 37°58' E 023°34'0 0.0
2018-Feb-17 02:59N 37°58' E 023°34'0 0.0
2018-Feb-17 02:29N 37°58' E 023°34'0 0.0
2018-Feb-17 01:59N 37°58' E 023°34'0 0.0
2018-Feb-17 01:29N 37°58' E 023°34'0 0.0
2018-Feb-17 00:59N 37°58' E 023°34'0 0.0
2018-Feb-17 00:29N 37°58' E 023°34'0 0.0
2018-Feb-16 23:59N 37°58' E 023°34'0 0.0
2018-Feb-16 23:29N 37°58' E 023°34'0 0.0
2018-Feb-16 22:59N 37°58' E 023°34'0 0.0
2018-Feb-16 22:29N 37°58' E 023°34'0 0.0
2018-Feb-16 21:59N 37°58' E 023°34'0 0.0
2018-Feb-16 21:29N 37°58' E 023°34'0 0.0
2018-Feb-16 20:59N 37°58' E 023°34'0 0.0
2018-Feb-16 20:29N 37°58' E 023°34'0 0.0
2018-Feb-16 19:56N 37°58' E 023°34'0 0.0
2018-Feb-16 19:29N 37°58' E 023°34'0 0.0
2018-Feb-16 18:59N 37°58' E 023°34'0 0.0
2018-Feb-16 18:29N 37°58' E 023°34'0 0.0
2018-Feb-16 17:59N 37°58' E 023°34'0 0.0
2018-Feb-16 17:29N 37°58' E 023°34'0 0.0
2018-Feb-16 16:59N 37°58' E 023°34'0 0.0
2018-Feb-16 16:23N 37°58' E 023°34'0 0.0
2018-Feb-16 15:59N 37°58' E 023°34'0 0.0
2018-Feb-16 15:29N 37°58' E 023°34'0 0.0
2018-Feb-16 14:59N 37°58' E 023°34'0 0.0
2018-Feb-16 14:29N 37°58' E 023°34'0 0.0
2018-Feb-16 13:59N 37°58' E 023°34'0 0.0
2018-Feb-16 13:29N 37°58' E 023°34'0 0.0
2018-Feb-16 12:59N 37°58' E 023°34'0 0.0
2018-Feb-16 12:29N 37°58' E 023°34'0 0.0
2018-Feb-16 11:59N 37°58' E 023°34'0 0.0
2018-Feb-16 11:29N 37°58' E 023°34'0 0.0
2018-Feb-16 10:59N 37°58' E 023°34'0 0.0
2018-Feb-16 10:29N 37°58' E 023°34'0 0.0
2018-Feb-16 09:56N 37°58' E 023°34'0 0.0
2018-Feb-16 09:29N 37°58' E 023°34'0 0.0
2018-Feb-16 08:59N 37°58' E 023°34'0 0.0
2018-Feb-16 08:29N 37°58' E 023°34'0 0.0
2018-Feb-16 07:59N 37°58' E 023°34'0 0.0
2018-Feb-16 07:29N 37°58' E 023°34'0 0.0
2018-Feb-16 06:59N 37°58' E 023°34'0 0.0
2018-Feb-16 06:29N 37°58' E 023°34'0 0.0
2018-Feb-16 05:59N 37°58' E 023°34'0 0.0
2018-Feb-16 05:29N 37°58' E 023°34'0 0.0
2018-Feb-16 04:53N 37°58' E 023°34'0 0.0
2018-Feb-16 04:26N 37°58' E 023°34'0 0.0
2018-Feb-16 03:59N 37°58' E 023°34'0 0.0
2018-Feb-16 03:29N 37°58' E 023°34'0 0.0
2018-Feb-16 02:59N 37°58' E 023°34'0 0.0
2018-Feb-16 02:29N 37°58' E 023°34'0 0.0
2018-Feb-16 01:59N 37°58' E 023°34'0 0.0
2018-Feb-16 01:29N 37°58' E 023°34'0 0.0
2018-Feb-16 00:59N 37°58' E 023°34'0 0.0
2018-Feb-16 00:29N 37°58' E 023°34'0 0.0
2018-Feb-15 23:59N 37°58' E 023°34'0 0.0
2018-Feb-15 23:29N 37°58' E 023°34'0 0.0
2018-Feb-15 22:59N 37°58' E 023°34'0 0.0
2018-Feb-15 22:29N 37°58' E 023°34'0 0.0
2018-Feb-15 21:59N 37°58' E 023°34'0 0.0
2018-Feb-15 21:29N 37°58' E 023°34'0 0.0
2018-Feb-15 20:59N 37°58' E 023°34'0 0.0
2018-Feb-15 20:29N 37°58' E 023°34'0 0.0
2018-Feb-15 19:59N 37°58' E 023°34'0 0.0
2018-Feb-15 19:29N 37°58' E 023°34'0 0.0
2018-Feb-15 18:59N 37°58' E 023°34'0 0.0
2018-Feb-15 18:26N 37°58' E 023°34'0 0.0
2018-Feb-15 17:59N 37°58' E 023°34'0 0.0
2018-Feb-15 17:26N 37°58' E 023°34'0 0.0
2018-Feb-15 16:59N 37°58' E 023°34'0 0.0
2018-Feb-15 16:29N 37°58' E 023°34'0 0.0
2018-Feb-15 15:59N 37°58' E 023°34'0 0.0
2018-Feb-15 15:29N 37°58' E 023°34'0 0.0
2018-Feb-15 14:59N 37°58' E 023°34'0 0.0
2018-Feb-15 14:29N 37°58' E 023°34'0 0.0
2018-Feb-15 13:59N 37°58' E 023°34'0 0.0
2018-Feb-15 13:29N 37°58' E 023°34'0 0.0
2018-Feb-15 12:59N 37°58' E 023°34'0 0.0
2018-Feb-15 12:23N 37°58' E 023°34'0 0.0
2018-Feb-15 11:59N 37°58' E 023°34'0 0.0
2018-Feb-15 11:29N 37°58' E 023°34'0 0.0
2018-Feb-15 10:59N 37°58' E 023°34'0 0.0
2018-Feb-15 10:29N 37°58' E 023°34'0 0.0
2018-Feb-15 09:59N 37°58' E 023°34'0 0.0
2018-Feb-15 09:29N 37°58' E 023°34'0 0.0
2018-Feb-15 08:59N 37°58' E 023°34'0 0.0
2018-Feb-15 08:26N 37°58' E 023°34'0 0.0
2018-Feb-15 07:59N 37°58' E 023°34'0 0.0
2018-Feb-15 07:29N 37°58' E 023°34'0 0.0
2018-Feb-15 06:59N 37°58' E 023°34'0 0.0
2018-Feb-15 06:23N 37°58' E 023°34'0 0.0
2018-Feb-15 05:53N 37°58' E 023°34'0 0.0
2018-Feb-15 05:20N 37°58' E 023°34'0 0.0
2018-Feb-15 04:50N 37°58' E 023°34'0 0.0
2018-Feb-15 03:32N 37°58' E 023°34'0 0.0
2018-Feb-15 03:17N 37°58' E 023°34'0 0.0
2018-Feb-15 02:53N 37°58' E 023°34'0 0.0
2018-Feb-15 02:26N 37°58' E 023°34'0 0.0
2018-Feb-15 01:41N 37°58' E 023°34'0 0.0
2018-Feb-15 01:23N 37°58' E 023°34'0 0.0
2018-Feb-15 00:59N 37°58' E 023°34'0 0.0
2018-Feb-15 00:26N 37°58' E 023°34'0 0.0
2018-Feb-14 23:56N 37°58' E 023°34'0 0.0
2018-Feb-14 23:29N 37°58' E 023°34'0 0.0
2018-Feb-14 22:56N 37°58' E 023°34'0 0.0
2018-Feb-14 22:20N 37°58' E 023°34'0 0.0
2018-Feb-14 21:38N 37°58' E 023°34'0 0.0
2018-Feb-14 21:26N 37°58' E 023°34'0 0.0
2018-Feb-14 20:56N 37°58' E 023°34'0 0.0
2018-Feb-14 20:26N 37°58' E 023°34'0 0.0
2018-Feb-14 19:56N 37°58' E 023°34'0 0.0
2018-Feb-14 19:14N 37°58' E 023°34'0 0.0
2018-Feb-14 17:50N 37°58' E 023°34'0 0.0
2018-Feb-14 17:20N 37°58' E 023°34'0 0.0
2018-Feb-14 16:53N 37°58' E 023°34'0 0.0
2018-Feb-14 16:14N 37°58' E 023°34'0 0.0
2018-Feb-14 15:56N 37°58' E 023°34'0 0.0
2018-Feb-14 15:26N 37°58' E 023°34'0 0.0
2018-Feb-14 14:56N 37°58' E 023°34'0 0.0
2018-Feb-14 14:29N 37°58' E 023°34'0 0.0
2018-Feb-14 13:59N 37°58' E 023°34'0 0.0
2018-Feb-14 13:29N 37°58' E 023°34'0 0.0
2018-Feb-14 12:59N 37°58' E 023°34'0 0.0
2018-Feb-14 12:29N 37°58' E 023°34'0 0.0
2018-Feb-14 11:59N 37°58' E 023°34'0 0.0
2018-Feb-14 11:29N 37°58' E 023°34'0 0.0
2018-Feb-14 10:59N 37°58' E 023°34'0 0.0
2018-Feb-14 10:29N 37°58' E 023°34'0 0.0
2018-Feb-14 09:59N 37°58' E 023°34'0 0.0
2018-Feb-14 09:29N 37°58' E 023°34'0 0.0
2018-Feb-14 08:59N 37°58' E 023°34'0 0.0
2018-Feb-14 08:26N 37°58' E 023°34'0 0.0
2018-Feb-14 07:56N 37°58' E 023°34'0 0.0
2018-Feb-14 07:29N 37°58' E 023°34'0 0.0
2018-Feb-14 06:59N 37°58' E 023°34'0 0.0
2018-Feb-14 06:29N 37°58' E 023°34'0 0.0
2018-Feb-14 05:59N 37°58' E 023°34'0 0.0
2018-Feb-14 05:29N 37°58' E 023°34'0 0.0
2018-Feb-14 04:59N 37°58' E 023°34'0 0.0
2018-Feb-14 04:29N 37°58' E 023°34'0 0.0
2018-Feb-14 03:56N 37°58' E 023°34'0 0.0
2018-Feb-14 03:29N 37°58' E 023°34'0 0.0
2018-Feb-14 02:59N 37°58' E 023°34'0 0.0
2018-Feb-14 02:29N 37°58' E 023°34'0 0.0
2018-Feb-14 01:59N 37°58' E 023°34'0 0.0
2018-Feb-14 01:29N 37°58' E 023°34'0 0.0
2018-Feb-14 00:59N 37°58' E 023°34'0 0.0
2018-Feb-14 00:29N 37°58' E 023°34'0 0.0
2018-Feb-13 23:59N 37°58' E 023°34'0 0.0
2018-Feb-13 23:29N 37°58' E 023°34'0 0.0
2018-Feb-13 22:59N 37°58' E 023°34'0 0.0
2018-Feb-13 22:29N 37°58' E 023°34'0 0.0
2018-Feb-13 21:59N 37°58' E 023°34'0 0.0
2018-Feb-13 21:29N 37°58' E 023°34'0 0.0
2018-Feb-13 20:59N 37°58' E 023°34'0 0.0
2018-Feb-13 20:29N 37°58' E 023°34'0 0.0
2018-Feb-13 19:59N 37°58' E 023°34'0 0.0
2018-Feb-13 19:29N 37°58' E 023°34'0 0.0
2018-Feb-13 18:59N 37°58' E 023°34'0 0.0
2018-Feb-13 18:29N 37°58' E 023°34'0 0.0
2018-Feb-13 17:59N 37°58' E 023°34'0 0.0
2018-Feb-13 17:29N 37°58' E 023°34'0 0.0
2018-Feb-13 16:59N 37°58' E 023°34'0 0.0
2018-Feb-13 16:29N 37°58' E 023°34'0 0.0
2018-Feb-13 15:59N 37°58' E 023°34'0 0.0
2018-Feb-13 15:29N 37°58' E 023°34'0 0.0
2018-Feb-13 14:59N 37°58' E 023°34'0 0.0
2018-Feb-13 14:29N 37°58' E 023°34'0 0.0
2018-Feb-13 13:59N 37°58' E 023°34'0 0.0
2018-Feb-13 13:29N 37°58' E 023°34'0 0.0
2018-Feb-13 12:59N 37°58' E 023°34'0 0.0
2018-Feb-13 12:29N 37°58' E 023°34'0 0.0
2018-Feb-13 11:59N 37°58' E 023°34'0 0.0
2018-Feb-13 11:26N 37°58' E 023°34'0 0.0
2018-Feb-13 10:59N 37°58' E 023°34'0 0.0
2018-Feb-13 10:29N 37°58' E 023°34'0 0.0
2018-Feb-13 09:59N 37°58' E 023°34'0 0.0
2018-Feb-13 09:29N 37°58' E 023°34'0 0.0
2018-Feb-13 08:59N 37°58' E 023°34'0 0.0
2018-Feb-13 08:26N 37°58' E 023°34'0 0.0
2018-Feb-13 07:59N 37°58' E 023°34'0 0.0
2018-Feb-13 07:29N 37°58' E 023°34'0 0.0
2018-Feb-13 06:59N 37°58' E 023°34'0 0.0
2018-Feb-13 06:29N 37°58' E 023°34'0 0.0
2018-Feb-13 05:59N 37°58' E 023°34'0 0.0
2018-Feb-13 05:29N 37°58' E 023°34'0 0.0
2018-Feb-13 04:59N 37°58' E 023°34'0 0.0
2018-Feb-13 04:29N 37°58' E 023°34'0 0.0
2018-Feb-13 03:59N 37°58' E 023°34'0 0.0
2018-Feb-13 03:29N 37°58' E 023°34'0 0.0
2018-Feb-13 02:59N 37°58' E 023°34'0 0.0
2018-Feb-13 02:29N 37°58' E 023°34'0 0.0
2018-Feb-13 01:59N 37°58' E 023°34'0 0.0
2018-Feb-13 01:29N 37°58' E 023°34'0 0.0
2018-Feb-13 00:59N 37°58' E 023°34'0 0.0
2018-Feb-13 00:29N 37°58' E 023°34'0 0.0
2018-Feb-12 23:56N 37°58' E 023°34'0 0.0
2018-Feb-12 23:29N 37°58' E 023°34'0 0.0
2018-Feb-12 22:59N 37°58' E 023°34'0 0.0
2018-Feb-12 22:29N 37°58' E 023°34'0 0.0
2018-Feb-12 21:59N 37°58' E 023°34'0 0.0
2018-Feb-12 21:29N 37°58' E 023°34'0 0.0
2018-Feb-12 20:59N 37°58' E 023°34'0 0.0
2018-Feb-12 20:29N 37°58' E 023°34'0 0.0
2018-Feb-12 19:59N 37°58' E 023°34'0 0.0
2018-Feb-12 19:29N 37°58' E 023°34'0 0.0
2018-Feb-12 18:59N 37°58' E 023°34'0 0.0
2018-Feb-12 18:29N 37°58' E 023°34'0 0.0
2018-Feb-12 17:59N 37°58' E 023°34'0 0.0
2018-Feb-12 17:29N 37°58' E 023°34'0 0.0
2018-Feb-12 16:59N 37°58' E 023°34'0 0.0
2018-Feb-12 16:29N 37°58' E 023°34'0 0.0
2018-Feb-12 15:59N 37°58' E 023°34'0 0.0
2018-Feb-12 15:14N 37°58' E 023°34'0 0.0
2018-Feb-12 14:59N 37°58' E 023°34'0 0.0
2018-Feb-12 14:29N 37°58' E 023°34'0 0.0
2018-Feb-12 13:56N 37°58' E 023°34'0 0.0
2018-Feb-12 13:29N 37°58' E 023°34'0 0.0
2018-Feb-12 12:59N 37°58' E 023°34'0 0.0
2018-Feb-12 12:29N 37°58' E 023°34'0 0.0
2018-Feb-12 11:59N 37°58' E 023°34'0 0.0
2018-Feb-12 11:29N 37°58' E 023°34'0 0.0
2018-Feb-12 10:59N 37°58' E 023°34'0 0.0
2018-Feb-12 10:29N 37°58' E 023°34'0 0.0
2018-Feb-12 09:59N 37°58' E 023°34'0 0.0
2018-Feb-12 09:26N 37°58' E 023°34'0 0.0
2018-Feb-12 08:59N 37°58' E 023°34'0 0.0
2018-Feb-12 08:26N 37°58' E 023°34'0 0.0
2018-Feb-12 07:59N 37°58' E 023°34'0 0.0
2018-Feb-12 07:26N 37°58' E 023°34'0 0.0
2018-Feb-12 06:59N 37°58' E 023°34'0 0.0
2018-Feb-12 06:29N 37°58' E 023°34'0 0.0
2018-Feb-12 05:59N 37°58' E 023°34'0 0.0
2018-Feb-12 05:29N 37°58' E 023°34'0 0.0
2018-Feb-12 04:59N 37°58' E 023°34'0 0.0
2018-Feb-12 04:29N 37°58' E 023°34'0 0.0
2018-Feb-12 03:59N 37°58' E 023°34'0 0.0
2018-Feb-12 03:29N 37°58' E 023°34'0 0.0
2018-Feb-12 02:59N 37°58' E 023°34'0 0.0
2018-Feb-12 02:29N 37°58' E 023°34'0 0.0
2018-Feb-12 01:59N 37°58' E 023°34'0 0.0
2018-Feb-12 01:29N 37°58' E 023°34'  
Track history (hours):
 
Tides and Currents Weather Stations Pressure Air Temp Water Temp Dewpoint Dewpoint Depression Visibility Wind Speed Wind Dir Waves Ship Positions

Seamark 3

Last reported at 2018-Feb-22 01:00 UTC. Time now 2018-Feb-22 01:17 UTC.
Position N 37°56' E 023°39'.

Length 15 m; draft 3.2 m.

Type: Pleasure craft. MMSI: 245999250.

Date/timePositionNaut miles runAvg speedWind from/ knotsBaromVisibWave heightAir tempDewpointWater temp
2018-Feb-22 01:00N 37°56' E 023°39'0 0.0
2018-Feb-22 00:30N 37°56' E 023°39'0 0.0
2018-Feb-22 00:00N 37°56' E 023°39'0 0.0
2018-Feb-21 23:30N 37°56' E 023°39'0 0.0
2018-Feb-21 23:00N 37°56' E 023°39'0 0.0
2018-Feb-21 22:27N 37°56' E 023°39'0 0.0
2018-Feb-21 22:00N 37°56' E 023°39'0 0.0
2018-Feb-21 21:30N 37°56' E 023°39'0 0.0
2018-Feb-21 21:00N 37°56' E 023°39'0 0.0
2018-Feb-21 20:30N 37°56' E 023°39'0 0.0
2018-Feb-21 19:57N 37°56' E 023°39'0 0.0
2018-Feb-21 19:30N 37°56' E 023°39'0 0.0
2018-Feb-21 19:00N 37°56' E 023°39'0 0.0
2018-Feb-21 18:30N 37°56' E 023°39'0 0.0
2018-Feb-21 18:00N 37°56' E 023°39'0 0.0
2018-Feb-21 17:30N 37°56' E 023°39'0 0.0
2018-Feb-21 17:00N 37°56' E 023°39'0 0.0
2018-Feb-21 16:30N 37°56' E 023°39'0 0.0
2018-Feb-21 16:00N 37°56' E 023°39'0 0.0
2018-Feb-21 15:30N 37°56' E 023°39'0 0.0
2018-Feb-21 14:57N 37°56' E 023°39'0 0.0
2018-Feb-21 14:27N 37°56' E 023°39'0 0.0
2018-Feb-21 13:57N 37°56' E 023°39'0 0.0
2018-Feb-21 13:30N 37°56' E 023°39'0 0.0
2018-Feb-21 13:00N 37°56' E 023°39'0 0.7
2018-Feb-21 12:31N 37°56' E 023°39'510.5
2018-Feb-21 12:01N 37°51' E 023°43'3 6.0
2018-Feb-21 11:30N 37°53' E 023°40'713.3
2018-Feb-21 11:00N 37°47' E 023°44'713.8
2018-Feb-21 10:30N 37°53' E 023°39'3 7.0
2018-Feb-21 10:01N 37°54' E 023°35'815.7
2018-Feb-21 09:31N 37°49' E 023°42'5 9.7
2018-Feb-21 09:00N 37°53' E 023°39'510.1
2018-Feb-21 08:31N 37°57' E 023°35'1 1.5
2018-Feb-21 08:00N 37°57' E 023°34'0 0.6
2018-Feb-21 07:31N 37°57' E 023°34'0 0.3
2018-Feb-21 07:00N 37°57' E 023°34'0 0.6
2018-Feb-21 06:29N 37°58' E 023°34'0 0.0
2018-Feb-21 05:59N 37°58' E 023°34'0 0.0
2018-Feb-21 05:29N 37°58' E 023°34'0 0.0
2018-Feb-21 04:59N 37°58' E 023°34'0 0.0
2018-Feb-21 04:29N 37°58' E 023°34'0 0.0
2018-Feb-21 03:59N 37°58' E 023°34'0 0.0
2018-Feb-21 03:29N 37°58' E 023°34'0 0.0
2018-Feb-21 02:59N 37°58' E 023°34'0 0.0
2018-Feb-21 02:29N 37°58' E 023°34'0 0.0
2018-Feb-21 01:59N 37°58' E 023°34'0 0.0
2018-Feb-21 01:29N 37°58' E 023°34'0 0.0
2018-Feb-21 00:56N 37°58' E 023°34'0 0.0
2018-Feb-21 00:29N 37°58' E 023°34'0 0.0
2018-Feb-20 23:59N 37°58' E 023°34'0 0.0
2018-Feb-20 23:29N 37°58' E 023°34'0 0.0
2018-Feb-20 22:59N 37°58' E 023°34'0 0.0
2018-Feb-20 22:29N 37°58' E 023°34'0 0.0
2018-Feb-20 21:59N 37°58' E 023°34'0 0.0
2018-Feb-20 21:29N 37°58' E 023°34'0 0.0
2018-Feb-20 20:59N 37°58' E 023°34'0 0.0
2018-Feb-20 20:29N 37°58' E 023°34'0 0.0
2018-Feb-20 19:59N 37°58' E 023°34'0 0.0
2018-Feb-20 19:29N 37°58' E 023°34'0 0.0
2018-Feb-20 18:59N 37°58' E 023°34'0 0.0
2018-Feb-20 18:29N 37°58' E 023°34'0 0.0
2018-Feb-20 17:59N 37°58' E 023°34'0 0.0
2018-Feb-20 17:29N 37°58' E 023°34'0 0.0
2018-Feb-20 16:59N 37°58' E 023°34'0 0.0
2018-Feb-20 16:29N 37°58' E 023°34'0 0.0
2018-Feb-20 15:59N 37°58' E 023°34'0 0.0
2018-Feb-20 15:29N 37°58' E 023°34'0 0.0
2018-Feb-20 14:59N 37°58' E 023°34'0 0.0
2018-Feb-20 14:29N 37°58' E 023°34'0 0.0
2018-Feb-20 13:59N 37°58' E 023°34'0 0.0
2018-Feb-20 13:29N 37°58' E 023°34'0 0.0
2018-Feb-20 12:59N 37°58' E 023°34'0 0.0
2018-Feb-20 12:29N 37°58' E 023°34'0 0.0
2018-Feb-20 11:59N 37°58' E 023°34'0 0.0
2018-Feb-20 11:23N 37°58' E 023°34'0 0.0
2018-Feb-20 10:59N 37°58' E 023°34'0 0.0
2018-Feb-20 10:29N 37°58' E 023°34'0 0.0
2018-Feb-20 09:59N 37°58' E 023°34'0 0.0
2018-Feb-20 09:29N 37°58' E 023°34'0 0.0
2018-Feb-20 08:59N 37°58' E 023°34'0 0.0
2018-Feb-20 08:23N 37°58' E 023°34'0 0.0
2018-Feb-20 07:59N 37°58' E 023°34'0 0.0
2018-Feb-20 07:29N 37°58' E 023°34'0 0.0
2018-Feb-20 06:59N 37°58' E 023°34'0 0.0
2018-Feb-20 06:26N 37°58' E 023°34'0 0.0
2018-Feb-20 05:59N 37°58' E 023°34'0 0.0
2018-Feb-20 05:29N 37°58' E 023°34'0 0.0
2018-Feb-20 04:59N 37°58' E 023°34'0 0.0
2018-Feb-20 04:29N 37°58' E 023°34'0 0.0
2018-Feb-20 03:59N 37°58' E 023°34'0 0.0
2018-Feb-20 03:29N 37°58' E 023°34'0 0.0
2018-Feb-20 02:59N 37°58' E 023°34'0 0.0
2018-Feb-20 02:29N 37°58' E 023°34'0 0.0
2018-Feb-20 01:59N 37°58' E 023°34'0 0.0
2018-Feb-20 01:29N 37°58' E 023°34'0 0.0
2018-Feb-20 00:53N 37°58' E 023°34'0 0.0
2018-Feb-20 00:29N 37°58' E 023°34'0 0.0
2018-Feb-19 23:59N 37°58' E 023°34'0 0.0
2018-Feb-19 23:29N 37°58' E 023°34'0 0.0
2018-Feb-19 22:59N 37°58' E 023°34'0 0.0
2018-Feb-19 22:29N 37°58' E 023°34'0 0.0
2018-Feb-19 21:59N 37°58' E 023°34'0 0.0
2018-Feb-19 21:29N 37°58' E 023°34'0 0.0
2018-Feb-19 20:59N 37°58' E 023°34'0 0.0
2018-Feb-19 20:29N 37°58' E 023°34'0 0.0
2018-Feb-19 19:53N 37°58' E 023°34'0 0.0
2018-Feb-19 19:29N 37°58' E 023°34'0 0.0
2018-Feb-19 18:59N 37°58' E 023°34'0 0.0
2018-Feb-19 18:29N 37°58' E 023°34'0 0.0
2018-Feb-19 17:56N 37°58' E 023°34'0 0.0
2018-Feb-19 17:29N 37°58' E 023°34'0 0.0
2018-Feb-19 16:53N 37°58' E 023°34'0 0.0
2018-Feb-19 16:29N 37°58' E 023°34'0 0.0
2018-Feb-19 15:56N 37°58' E 023°34'0 0.0
2018-Feb-19 15:29N 37°58' E 023°34'0 0.0
2018-Feb-19 14:59N 37°58' E 023°34'0 0.0
2018-Feb-19 14:29N 37°58' E 023°34'0 0.0
2018-Feb-19 13:56N 37°58' E 023°34'0 0.0
2018-Feb-19 13:29N 37°58' E 023°34'0 0.0
2018-Feb-19 12:59N 37°58' E 023°34'0 0.0
2018-Feb-19 12:29N 37°58' E 023°34'0 0.0
2018-Feb-19 11:59N 37°58' E 023°34'0 0.0
2018-Feb-19 11:29N 37°58' E 023°34'0 0.0
2018-Feb-19 10:59N 37°58' E 023°34'0 0.0
2018-Feb-19 10:29N 37°58' E 023°34'0 0.0
2018-Feb-19 09:59N 37°58' E 023°34'0 0.0
2018-Feb-19 09:29N 37°58' E 023°34'0 0.0
2018-Feb-19 08:59N 37°58' E 023°34'0 0.0
2018-Feb-19 08:23N 37°58' E 023°34'0 0.0
2018-Feb-19 07:59N 37°58' E 023°34'0 0.0
2018-Feb-19 07:26N 37°58' E 023°34'0 0.0
2018-Feb-19 06:59N 37°58' E 023°34'0 0.0
2018-Feb-19 06:26N 37°58' E 023°34'0 0.0
2018-Feb-19 05:59N 37°58' E 023°34'0 0.0
2018-Feb-19 05:29N 37°58' E 023°34'0 0.0
2018-Feb-19 04:59N 37°58' E 023°34'0 0.0
2018-Feb-19 04:29N 37°58' E 023°34'0 0.0
2018-Feb-19 03:59N 37°58' E 023°34'0 0.0
2018-Feb-19 03:29N 37°58' E 023°34'0 0.0
2018-Feb-19 02:59N 37°58' E 023°34'0 0.0
2018-Feb-19 02:29N 37°58' E 023°34'0 0.0
2018-Feb-19 01:59N 37°58' E 023°34'0 0.0
2018-Feb-19 01:29N 37°58' E 023°34'0 0.0
2018-Feb-19 00:59N 37°58' E 023°34'0 0.0
2018-Feb-19 00:29N 37°58' E 023°34'0 0.0
2018-Feb-18 23:59N 37°58' E 023°34'0 0.0
2018-Feb-18 23:29N 37°58' E 023°34'0 0.0
2018-Feb-18 22:59N 37°58' E 023°34'0 0.0
2018-Feb-18 22:29N 37°58' E 023°34'0 0.0
2018-Feb-18 21:59N 37°58' E 023°34'0 0.0
2018-Feb-18 21:29N 37°58' E 023°34'0 0.0
2018-Feb-18 20:59N 37°58' E 023°34'0 0.0
2018-Feb-18 20:29N 37°58' E 023°34'0 0.0
2018-Feb-18 19:59N 37°58' E 023°34'0 0.0
2018-Feb-18 19:29N 37°58' E 023°34'0 0.0
2018-Feb-18 18:59N 37°58' E 023°34'0 0.0
2018-Feb-18 18:29N 37°58' E 023°34'0 0.0
2018-Feb-18 17:59N 37°58' E 023°34'0 0.0
2018-Feb-18 17:29N 37°58' E 023°34'0 0.0
2018-Feb-18 16:59N 37°58' E 023°34'0 0.0
2018-Feb-18 16:29N 37°58' E 023°34'0 0.0
2018-Feb-18 15:59N 37°58' E 023°34'0 0.0
2018-Feb-18 15:29N 37°58' E 023°34'0 0.0
2018-Feb-18 14:59N 37°58' E 023°34'0 0.0
2018-Feb-18 14:29N 37°58' E 023°34'0 0.0
2018-Feb-18 13:59N 37°58' E 023°34'0 0.0
2018-Feb-18 13:29N 37°58' E 023°34'0 0.0
2018-Feb-18 12:59N 37°58' E 023°34'0 0.0
2018-Feb-18 12:29N 37°58' E 023°34'0 0.0
2018-Feb-18 11:59N 37°58' E 023°34'0 0.0
2018-Feb-18 11:29N 37°58' E 023°34'0 0.0
2018-Feb-18 10:59N 37°58' E 023°34'0 0.0
2018-Feb-18 10:29N 37°58' E 023°34'0 0.0
2018-Feb-18 09:59N 37°58' E 023°34'0 0.0
2018-Feb-18 09:29N 37°58' E 023°34'0 0.0
2018-Feb-18 08:59N 37°58' E 023°34'0 0.0
2018-Feb-18 08:29N 37°58' E 023°34'0 0.0
2018-Feb-18 07:59N 37°58' E 023°34'0 0.0
2018-Feb-18 07:26N 37°58' E 023°34'0 0.0
2018-Feb-18 06:59N 37°58' E 023°34'0 0.0
2018-Feb-18 06:29N 37°58' E 023°34'0 0.0
2018-Feb-18 05:59N 37°58' E 023°34'0 0.0
2018-Feb-18 05:29N 37°58' E 023°34'0 0.0
2018-Feb-18 04:59N 37°58' E 023°34'0 0.0
2018-Feb-18 04:29N 37°58' E 023°34'0 0.0
2018-Feb-18 03:59N 37°58' E 023°34'0 0.0
2018-Feb-18 03:29N 37°58' E 023°34'0 0.0
2018-Feb-18 02:59N 37°58' E 023°34'0 0.0
2018-Feb-18 02:29N 37°58' E 023°34'0 0.0
2018-Feb-18 01:59N 37°58' E 023°34'0 0.0
2018-Feb-18 01:29N 37°58' E 023°34'0 0.0
2018-Feb-18 00:59N 37°58' E 023°34'0 0.0
2018-Feb-18 00:29N 37°58' E 023°34'0 0.0
2018-Feb-17 23:59N 37°58' E 023°34'0 0.0
2018-Feb-17 23:29N 37°58' E 023°34'0 0.0
2018-Feb-17 22:59N 37°58' E 023°34'0 0.0
2018-Feb-17 22:29N 37°58' E 023°34'0 0.0
2018-Feb-17 21:59N 37°58' E 023°34'0 0.0
2018-Feb-17 21:29N 37°58' E 023°34'0 0.0
2018-Feb-17 20:59N 37°58' E 023°34'0 0.0
2018-Feb-17 20:26N 37°58' E 023°34'0 0.0
2018-Feb-17 19:59N 37°58' E 023°34'0 0.0
2018-Feb-17 19:29N 37°58' E 023°34'0 0.0
2018-Feb-17 18:59N 37°58' E 023°34'0 0.0
2018-Feb-17 18:26N 37°58' E 023°34'0 0.0
2018-Feb-17 17:59N 37°58' E 023°34'0 0.0
2018-Feb-17 17:29N 37°58' E 023°34'0 0.0
2018-Feb-17 16:59N 37°58' E 023°34'0 0.0
2018-Feb-17 16:29N 37°58' E 023°34'0 0.0
2018-Feb-17 15:59N 37°58' E 023°34'0 0.0
2018-Feb-17 15:29N 37°58' E 023°34'0 0.0
2018-Feb-17 14:59N 37°58' E 023°34'0 0.0
2018-Feb-17 14:29N 37°58' E 023°34'0 0.0
2018-Feb-17 13:59N 37°58' E 023°34'0 0.0
2018-Feb-17 13:29N 37°58' E 023°34'0 0.0
2018-Feb-17 12:59N 37°58' E 023°34'0 0.0
2018-Feb-17 12:29N 37°58' E 023°34'0 0.0
2018-Feb-17 11:59N 37°58' E 023°34'0 0.0
2018-Feb-17 11:29N 37°58' E 023°34'0 0.0
2018-Feb-17 10:59N 37°58' E 023°34'0 0.0
2018-Feb-17 10:29N 37°58' E 023°34'0 0.0
2018-Feb-17 09:58N 37°58' E 023°34'0 0.0
2018-Feb-17 09:29N 37°58' E 023°34'0 0.1
2018-Feb-17 08:59N 37°58' E 023°34'0 0.0
2018-Feb-17 08:29N 37°58' E 023°34'0 0.0
2018-Feb-17 07:59N 37°58' E 023°34'0 0.0
2018-Feb-17 07:29N 37°58' E 023°34'0 0.0
2018-Feb-17 06:59N 37°58' E 023°34'0 0.0
2018-Feb-17 06:29N 37°58' E 023°34'0 0.0
2018-Feb-17 05:59N 37°58' E 023°34'0 0.0
2018-Feb-17 05:26N 37°58' E 023°34'0 0.0
2018-Feb-17 04:59N 37°58' E 023°34'0 0.0
2018-Feb-17 04:29N 37°58' E 023°34'0 0.0
2018-Feb-17 03:59N 37°58' E 023°34'0 0.0
2018-Feb-17 03:29N 37°58' E 023°34'0 0.0
2018-Feb-17 02:59N 37°58' E 023°34'0 0.0
2018-Feb-17 02:29N 37°58' E 023°34'0 0.0
2018-Feb-17 01:59N 37°58' E 023°34'0 0.0
2018-Feb-17 01:29N 37°58' E 023°34'0 0.0
2018-Feb-17 00:59N 37°58' E 023°34'0 0.0
2018-Feb-17 00:29N 37°58' E 023°34'0 0.0
2018-Feb-16 23:59N 37°58' E 023°34'0 0.0
2018-Feb-16 23:29N 37°58' E 023°34'0 0.0
2018-Feb-16 22:59N 37°58' E 023°34'0 0.0
2018-Feb-16 22:29N 37°58' E 023°34'0 0.0
2018-Feb-16 21:59N 37°58' E 023°34'0 0.0
2018-Feb-16 21:29N 37°58' E 023°34'0 0.0
2018-Feb-16 20:59N 37°58' E 023°34'0 0.0
2018-Feb-16 20:29N 37°58' E 023°34'0 0.0
2018-Feb-16 19:56N 37°58' E 023°34'0 0.0
2018-Feb-16 19:29N 37°58' E 023°34'0 0.0
2018-Feb-16 18:59N 37°58' E 023°34'0 0.0
2018-Feb-16 18:29N 37°58' E 023°34'0 0.0
2018-Feb-16 17:59N 37°58' E 023°34'0 0.0
2018-Feb-16 17:29N 37°58' E 023°34'0 0.0
2018-Feb-16 16:59N 37°58' E 023°34'0 0.0
2018-Feb-16 16:23N 37°58' E 023°34'0 0.0
2018-Feb-16 15:59N 37°58' E 023°34'0 0.0
2018-Feb-16 15:29N 37°58' E 023°34'0 0.0
2018-Feb-16 14:59N 37°58' E 023°34'0 0.0
2018-Feb-16 14:29N 37°58' E 023°34'0 0.0
2018-Feb-16 13:59N 37°58' E 023°34'0 0.0
2018-Feb-16 13:29N 37°58' E 023°34'0 0.0
2018-Feb-16 12:59N 37°58' E 023°34'0 0.0
2018-Feb-16 12:29N 37°58' E 023°34'0 0.0
2018-Feb-16 11:59N 37°58' E 023°34'0 0.0
2018-Feb-16 11:29N 37°58' E 023°34'0 0.0
2018-Feb-16 10:59N 37°58' E 023°34'0 0.0
2018-Feb-16 10:29N 37°58' E 023°34'0 0.0
2018-Feb-16 09:56N 37°58' E 023°34'0 0.0
2018-Feb-16 09:29N 37°58' E 023°34'0 0.0
2018-Feb-16 08:59N 37°58' E 023°34'0 0.0
2018-Feb-16 08:29N 37°58' E 023°34'0 0.0
2018-Feb-16 07:59N 37°58' E 023°34'0 0.0
2018-Feb-16 07:29N 37°58' E 023°34'0 0.0
2018-Feb-16 06:59N 37°58' E 023°34'0 0.0
2018-Feb-16 06:29N 37°58' E 023°34'0 0.0
2018-Feb-16 05:59N 37°58' E 023°34'0 0.0
2018-Feb-16 05:29N 37°58' E 023°34'0 0.0
2018-Feb-16 04:53N 37°58' E 023°34'0 0.0
2018-Feb-16 04:26N 37°58' E 023°34'0 0.0
2018-Feb-16 03:59N 37°58' E 023°34'0 0.0
2018-Feb-16 03:29N 37°58' E 023°34'0 0.0
2018-Feb-16 02:59N 37°58' E 023°34'0 0.0
2018-Feb-16 02:29N 37°58' E 023°34'0 0.0
2018-Feb-16 01:59N 37°58' E 023°34'0 0.0
2018-Feb-16 01:29N 37°58' E 023°34'0 0.0
2018-Feb-16 00:59N 37°58' E 023°34'0 0.0
2018-Feb-16 00:29N 37°58' E 023°34'0 0.0
2018-Feb-15 23:59N 37°58' E 023°34'0 0.0
2018-Feb-15 23:29N 37°58' E 023°34'0 0.0
2018-Feb-15 22:59N 37°58' E 023°34'0 0.0
2018-Feb-15 22:29N 37°58' E 023°34'0 0.0
2018-Feb-15 21:59N 37°58' E 023°34'0 0.0
2018-Feb-15 21:29N 37°58' E 023°34'0 0.0
2018-Feb-15 20:59N 37°58' E 023°34'0 0.0
2018-Feb-15 20:29N 37°58' E 023°34'0 0.0
2018-Feb-15 19:59N 37°58' E 023°34'0 0.0
2018-Feb-15 19:29N 37°58' E 023°34'0 0.0
2018-Feb-15 18:59N 37°58' E 023°34'0 0.0
2018-Feb-15 18:26N 37°58' E 023°34'0 0.0
2018-Feb-15 17:59N 37°58' E 023°34'0 0.0
2018-Feb-15 17:26N 37°58' E 023°34'0 0.0
2018-Feb-15 16:59N 37°58' E 023°34'0 0.0
2018-Feb-15 16:29N 37°58' E 023°34'0 0.0
2018-Feb-15 15:59N 37°58' E 023°34'0 0.0
2018-Feb-15 15:29N 37°58' E 023°34'0 0.0
2018-Feb-15 14:59N 37°58' E 023°34'0 0.0
2018-Feb-15 14:29N 37°58' E 023°34'0 0.0
2018-Feb-15 13:59N 37°58' E 023°34'0 0.0
2018-Feb-15 13:29N 37°58' E 023°34'0 0.0
2018-Feb-15 12:59N 37°58' E 023°34'0 0.0
2018-Feb-15 12:23N 37°58' E 023°34'0 0.0
2018-Feb-15 11:59N 37°58' E 023°34'0 0.0
2018-Feb-15 11:29N 37°58' E 023°34'0 0.0
2018-Feb-15 10:59N 37°58' E 023°34'0 0.0
2018-Feb-15 10:29N 37°58' E 023°34'0 0.0
2018-Feb-15 09:59N 37°58' E 023°34'0 0.0
2018-Feb-15 09:29N 37°58' E 023°34'0 0.0
2018-Feb-15 08:59N 37°58' E 023°34'0 0.0
2018-Feb-15 08:26N 37°58' E 023°34'0 0.0
2018-Feb-15 07:59N 37°58' E 023°34'0 0.0
2018-Feb-15 07:29N 37°58' E 023°34'0 0.0
2018-Feb-15 06:59N 37°58' E 023°34'0 0.0
2018-Feb-15 06:23N 37°58' E 023°34'0 0.0
2018-Feb-15 05:53N 37°58' E 023°34'0 0.0
2018-Feb-15 05:20N 37°58' E 023°34'0 0.0
2018-Feb-15 04:50N 37°58' E 023°34'0 0.0
2018-Feb-15 03:32N 37°58' E 023°34'0 0.0
2018-Feb-15 03:17N 37°58' E 023°34'0 0.0
2018-Feb-15 02:53N 37°58' E 023°34'0 0.0
2018-Feb-15 02:26N 37°58' E 023°34'0 0.0
2018-Feb-15 01:41N 37°58' E 023°34'0 0.0
2018-Feb-15 01:23N 37°58' E 023°34'0 0.0
2018-Feb-15 00:59N 37°58' E 023°34'0 0.0
2018-Feb-15 00:26N 37°58' E 023°34'0 0.0
2018-Feb-14 23:56N 37°58' E 023°34'0 0.0
2018-Feb-14 23:29N 37°58' E 023°34'0 0.0
2018-Feb-14 22:56N 37°58' E 023°34'0 0.0
2018-Feb-14 22:20N 37°58' E 023°34'0 0.0
2018-Feb-14 21:38N 37°58' E 023°34'0 0.0
2018-Feb-14 21:26N 37°58' E 023°34'0 0.0
2018-Feb-14 20:56N 37°58' E 023°34'0 0.0
2018-Feb-14 20:26N 37°58' E 023°34'0 0.0
2018-Feb-14 19:56N 37°58' E 023°34'0 0.0
2018-Feb-14 19:14N 37°58' E 023°34'0 0.0
2018-Feb-14 17:50N 37°58' E 023°34'0 0.0
2018-Feb-14 17:20N 37°58' E 023°34'0 0.0
2018-Feb-14 16:53N 37°58' E 023°34'0 0.0
2018-Feb-14 16:14N 37°58' E 023°34'0 0.0
2018-Feb-14 15:56N 37°58' E 023°34'0 0.0
2018-Feb-14 15:26N 37°58' E 023°34'0 0.0
2018-Feb-14 14:56N 37°58' E 023°34'0 0.0
2018-Feb-14 14:29N 37°58' E 023°34'0 0.0
2018-Feb-14 13:59N 37°58' E 023°34'0 0.0
2018-Feb-14 13:29N 37°58' E 023°34'0 0.0
2018-Feb-14 12:59N 37°58' E 023°34'0 0.0
2018-Feb-14 12:29N 37°58' E 023°34'0 0.0
2018-Feb-14 11:59N 37°58' E 023°34'0 0.0
2018-Feb-14 11:29N 37°58' E 023°34'0 0.0
2018-Feb-14 10:59N 37°58' E 023°34'0 0.0
2018-Feb-14 10:29N 37°58' E 023°34'0 0.0
2018-Feb-14 09:59N 37°58' E 023°34'0 0.0
2018-Feb-14 09:29N 37°58' E 023°34'0 0.0
2018-Feb-14 08:59N 37°58' E 023°34'0 0.0
2018-Feb-14 08:26N 37°58' E 023°34'0 0.0
2018-Feb-14 07:56N 37°58' E 023°34'0 0.0
2018-Feb-14 07:29N 37°58' E 023°34'0 0.0
2018-Feb-14 06:59N 37°58' E 023°34'0 0.0
2018-Feb-14 06:29N 37°58' E 023°34'0 0.0
2018-Feb-14 05:59N 37°58' E 023°34'0 0.0
2018-Feb-14 05:29N 37°58' E 023°34'0 0.0
2018-Feb-14 04:59N 37°58' E 023°34'0 0.0
2018-Feb-14 04:29N 37°58' E 023°34'0 0.0
2018-Feb-14 03:56N 37°58' E 023°34'0 0.0
2018-Feb-14 03:29N 37°58' E 023°34'0 0.0
2018-Feb-14 02:59N 37°58' E 023°34'0 0.0
2018-Feb-14 02:29N 37°58' E 023°34'0 0.0
2018-Feb-14 01:59N 37°58' E 023°34'0 0.0
2018-Feb-14 01:29N 37°58' E 023°34'0 0.0
2018-Feb-14 00:59N 37°58' E 023°34'0 0.0
2018-Feb-14 00:29N 37°58' E 023°34'0 0.0
2018-Feb-13 23:59N 37°58' E 023°34'0 0.0
2018-Feb-13 23:29N 37°58' E 023°34'0 0.0
2018-Feb-13 22:59N 37°58' E 023°34'0 0.0
2018-Feb-13 22:29N 37°58' E 023°34'0 0.0
2018-Feb-13 21:59N 37°58' E 023°34'0 0.0
2018-Feb-13 21:29N 37°58' E 023°34'0 0.0
2018-Feb-13 20:59N 37°58' E 023°34'0 0.0
2018-Feb-13 20:29N 37°58' E 023°34'0 0.0
2018-Feb-13 19:59N 37°58' E 023°34'0 0.0
2018-Feb-13 19:29N 37°58' E 023°34'0 0.0
2018-Feb-13 18:59N 37°58' E 023°34'0 0.0
2018-Feb-13 18:29N 37°58' E 023°34'0 0.0
2018-Feb-13 17:59N 37°58' E 023°34'0 0.0
2018-Feb-13 17:29N 37°58' E 023°34'0 0.0
2018-Feb-13 16:59N 37°58' E 023°34'0 0.0
2018-Feb-13 16:29N 37°58' E 023°34'0 0.0
2018-Feb-13 15:59N 37°58' E 023°34'0 0.0
2018-Feb-13 15:29N 37°58' E 023°34'0 0.0
2018-Feb-13 14:59N 37°58' E 023°34'0 0.0
2018-Feb-13 14:29N 37°58' E 023°34'0 0.0
2018-Feb-13 13:59N 37°58' E 023°34'0 0.0
2018-Feb-13 13:29N 37°58' E 023°34'0 0.0
2018-Feb-13 12:59N 37°58' E 023°34'0 0.0
2018-Feb-13 12:29N 37°58' E 023°34'0 0.0
2018-Feb-13 11:59N 37°58' E 023°34'0 0.0
2018-Feb-13 11:26N 37°58' E 023°34'0 0.0
2018-Feb-13 10:59N 37°58' E 023°34'0 0.0
2018-Feb-13 10:29N 37°58' E 023°34'0 0.0
2018-Feb-13 09:59N 37°58' E 023°34'0 0.0
2018-Feb-13 09:29N 37°58' E 023°34'0 0.0
2018-Feb-13 08:59N 37°58' E 023°34'0 0.0
2018-Feb-13 08:26N 37°58' E 023°34'0 0.0
2018-Feb-13 07:59N 37°58' E 023°34'0 0.0
2018-Feb-13 07:29N 37°58' E 023°34'0 0.0
2018-Feb-13 06:59N 37°58' E 023°34'0 0.0
2018-Feb-13 06:29N 37°58' E 023°34'0 0.0
2018-Feb-13 05:59N 37°58' E 023°34'0 0.0
2018-Feb-13 05:29N 37°58' E 023°34'0 0.0
2018-Feb-13 04:59N 37°58' E 023°34'0 0.0
2018-Feb-13 04:29N 37°58' E 023°34'0 0.0
2018-Feb-13 03:59N 37°58' E 023°34'0 0.0
2018-Feb-13 03:29N 37°58' E 023°34'0 0.0
2018-Feb-13 02:59N 37°58' E 023°34'0 0.0
2018-Feb-13 02:29N 37°58' E 023°34'0 0.0
2018-Feb-13 01:59N 37°58' E 023°34'0 0.0
2018-Feb-13 01:29N 37°58' E 023°34'0 0.0
2018-Feb-13 00:59N 37°58' E 023°34'0 0.0
2018-Feb-13 00:29N 37°58' E 023°34'0 0.0
2018-Feb-12 23:56N 37°58' E 023°34'0 0.0
2018-Feb-12 23:29N 37°58' E 023°34'0 0.0
2018-Feb-12 22:59N 37°58' E 023°34'0 0.0
2018-Feb-12 22:29N 37°58' E 023°34'0 0.0
2018-Feb-12 21:59N 37°58' E 023°34'0 0.0
2018-Feb-12 21:29N 37°58' E 023°34'0 0.0
2018-Feb-12 20:59N 37°58' E 023°34'0 0.0
2018-Feb-12 20:29N 37°58' E 023°34'0 0.0
2018-Feb-12 19:59N 37°58' E 023°34'0 0.0
2018-Feb-12 19:29N 37°58' E 023°34'0 0.0
2018-Feb-12 18:59N 37°58' E 023°34'0 0.0
2018-Feb-12 18:29N 37°58' E 023°34'0 0.0
2018-Feb-12 17:59N 37°58' E 023°34'0 0.0
2018-Feb-12 17:29N 37°58' E 023°34'0 0.0
2018-Feb-12 16:59N 37°58' E 023°34'0 0.0
2018-Feb-12 16:29N 37°58' E 023°34'0 0.0
2018-Feb-12 15:59N 37°58' E 023°34'0 0.0
2018-Feb-12 15:14N 37°58' E 023°34'0 0.0
2018-Feb-12 14:59N 37°58' E 023°34'0 0.0
2018-Feb-12 14:29N 37°58' E 023°34'0 0.0
2018-Feb-12 13:56N 37°58' E 023°34'0 0.0
2018-Feb-12 13:29N 37°58' E 023°34'0 0.0
2018-Feb-12 12:59N 37°58' E 023°34'0 0.0
2018-Feb-12 12:29N 37°58' E 023°34'0 0.0
2018-Feb-12 11:59N 37°58' E 023°34'0 0.0
2018-Feb-12 11:29N 37°58' E 023°34'0 0.0
2018-Feb-12 10:59N 37°58' E 023°34'0 0.0
2018-Feb-12 10:29N 37°58' E 023°34'0 0.0
2018-Feb-12 09:59N 37°58' E 023°34'0 0.0
2018-Feb-12 09:26N 37°58' E 023°34'0 0.0
2018-Feb-12 08:59N 37°58' E 023°34'0 0.0
2018-Feb-12 08:26N 37°58' E 023°34'0 0.0
2018-Feb-12 07:59N 37°58' E 023°34'0 0.0
2018-Feb-12 07:26N 37°58' E 023°34'0 0.0
2018-Feb-12 06:59N 37°58' E 023°34'0 0.0
2018-Feb-12 06:29N 37°58' E 023°34'0 0.0
2018-Feb-12 05:59N 37°58' E 023°34'0 0.0
2018-Feb-12 05:29N 37°58' E 023°34'0 0.0
2018-Feb-12 04:59N 37°58' E 023°34'0 0.0
2018-Feb-12 04:29N 37°58' E 023°34'0 0.0
2018-Feb-12 03:59N 37°58' E 023°34'0 0.0
2018-Feb-12 03:29N 37°58' E 023°34'0 0.0
2018-Feb-12 02:59N 37°58' E 023°34'0 0.0
2018-Feb-12 02:29N 37°58' E 023°34'0 0.0
2018-Feb-12 01:59N 37°58' E 023°34'0 0.0
2018-Feb-12 01:29N 37°58' E 023°34'  

Dump ship's entire track history